Time;durP1;ratioP1;P1;durP2;ratioP2;P2;SDS_P1;SDS_P2;PMS_P1;PMS_P2;Temp;Humidity;BMP_temperature;BMP_pressure;BME280_temperature;BME280_humidity;BME280_pressure;Samples;Min_cycle;Max_cycle;Signal;HPM_P1;HPM_P2
2022/11/13 00:01:24;;;;;;;12.57;10.53;;;10.60;99.90;;;;;;4986571;28;20213;-31
2022/11/13 00:03:51;;;;;;;12.20;9.80;;;10.50;99.90;;;;;;4987570;28;20210;-31
2022/11/13 00:06:19;;;;;;;11.10;9.60;;;10.50;99.90;;;;;;4989750;28;20207;-31
2022/11/13 00:08:46;;;;;;;13.97;10.40;;;10.50;99.90;;;;;;4987346;28;20293;-31
2022/11/13 00:11:19;;;;;;;12.60;10.20;;;10.40;99.90;;;;;;4987718;28;20210;-31
2022/11/13 00:13:49;;;;;;;13.03;10.23;;;10.40;99.90;;;;;;4987744;28;20738;-31
2022/11/13 00:16:20;;;;;;;13.20;10.17;;;10.40;99.90;;;;;;4987369;28;20565;-31
2022/11/13 00:18:49;;;;;;;14.57;10.47;;;10.30;99.90;;;;;;4987380;28;20636;-31
2022/11/13 00:21:21;;;;;;;13.20;10.73;;;10.30;99.90;;;;;;4987374;28;20202;-31
2022/11/13 00:23:50;;;;;;;12.33;11.03;;;10.30;99.90;;;;;;5001421;28;20214;-31
2022/11/13 00:26:27;;;;;;;12.67;10.83;;;10.30;99.90;;;;;;4985867;28;20241;-31
2022/11/13 00:29:00;;;;;;;13.20;10.87;;;10.30;99.90;;;;;;4987009;28;20229;-31
2022/11/13 00:31:28;;;;;;;10.87;9.77;;;10.20;99.90;;;;;;4986880;28;20202;-31
2022/11/13 00:33:59;;;;;;;13.20;10.07;;;10.20;99.90;;;;;;4986785;28;20211;-31
2022/11/13 00:36:49;;;;;;;16.57;11.17;;;10.20;99.90;;;;;;4986121;28;20237;-31
2022/11/13 00:39:16;;;;;;;14.17;10.20;;;10.10;99.90;;;;;;4986791;28;20250;-31
2022/11/13 00:41:45;;;;;;;13.40;11.00;;;10.10;99.90;;;;;;4986975;28;20695;-31
2022/11/13 00:44:12;;;;;;;12.93;10.27;;;10.10;99.90;;;;;;4986043;28;20202;-31
2022/11/13 00:46:39;;;;;;;12.13;10.80;;;10.10;99.90;;;;;;4987223;28;20250;-31
2022/11/13 00:49:07;;;;;;;13.60;10.60;;;10.00;99.90;;;;;;4987066;28;20238;-31
2022/11/13 00:51:40;;;;;;;13.77;10.33;;;10.00;99.90;;;;;;4986554;28;20207;-31
2022/11/13 00:54:08;;;;;;;11.70;10.50;;;10.00;99.90;;;;;;4986655;28;20202;-31
2022/11/13 00:56:39;;;;;;;12.47;9.80;;;10.00;99.90;;;;;;4986798;28;20285;-31
2022/11/13 00:59:09;;;;;;;13.17;11.07;;;10.00;99.90;;;;;;4985792;28;20205;-31
2022/11/13 01:01:36;;;;;;;12.97;10.77;;;9.90;99.90;;;;;;5003527;28;20305;-31
2022/11/13 01:04:03;;;;;;;11.73;10.20;;;9.90;99.90;;;;;;4986971;28;20269;-31
2022/11/13 01:06:33;;;;;;;13.23;10.63;;;9.90;99.90;;;;;;4986308;28;20316;-31
2022/11/13 01:09:03;;;;;;;15.90;12.17;;;9.90;99.90;;;;;;4968478;28;20202;-31
2022/11/13 01:11:30;;;;;;;15.67;10.97;;;9.90;99.90;;;;;;5001362;28;20635;-31
2022/11/13 01:13:57;;;;;;;13.97;10.40;;;9.90;99.90;;;;;;4986926;28;20321;-31
2022/11/13 01:16:26;;;;;;;12.60;10.07;;;9.90;99.90;;;;;;4986401;28;20254;-31
2022/11/13 01:18:54;;;;;;;14.53;10.00;;;9.90;99.90;;;;;;4986280;28;20281;-31
2022/11/13 01:21:28;;;;;;;15.20;10.77;;;9.90;99.90;;;;;;4986497;28;20285;-31
2022/11/13 01:23:56;;;;;;;16.20;10.50;;;9.80;99.90;;;;;;4986100;28;20302;-31
2022/11/13 01:26:27;;;;;;;16.07;10.83;;;9.80;99.90;;;;;;4984861;28;20207;-31
2022/11/13 01:28:58;;;;;;;15.60;10.83;;;9.80;99.90;;;;;;4986346;28;20209;-31
2022/11/13 01:31:28;;;;;;;13.83;9.83;;;9.80;99.90;;;;;;4986178;28;20613;-31
2022/11/13 01:34:00;;;;;;;11.90;10.23;;;9.70;99.90;;;;;;4985893;28;20213;-31
2022/11/13 01:36:28;;;;;;;13.33;10.60;;;9.70;99.90;;;;;;4985659;28;20315;-31
2022/11/13 01:39:00;;;;;;;12.57;10.47;;;9.70;99.90;;;;;;5000349;28;20229;-31
2022/11/13 01:41:30;;;;;;;11.77;9.93;;;9.60;99.90;;;;;;4986919;28;20586;-31
2022/11/13 01:43:58;;;;;;;12.43;10.47;;;9.60;99.90;;;;;;4985964;28;20301;-31
2022/11/13 01:46:37;;;;;;;13.57;10.53;;;9.60;99.90;;;;;;4986779;28;20621;-31
2022/11/13 01:49:12;;;;;;;13.17;10.40;;;9.60;99.90;;;;;;4985920;28;20241;-31
2022/11/13 01:51:50;;;;;;;12.67;10.53;;;9.60;99.90;;;;;;4985720;28;20213;-31
2022/11/13 01:54:30;;;;;;;12.20;10.03;;;9.50;99.90;;;;;;4991596;28;20883;-31
2022/11/13 01:56:57;;;;;;;12.43;9.70;;;9.50;99.90;;;;;;4986311;28;20221;-31
2022/11/13 01:59:33;;;;;;;11.50;10.30;;;9.50;99.90;;;;;;4984041;28;20237;-31
2022/11/13 02:02:00;;;;;;;11.53;10.27;;;9.50;99.90;;;;;;5001432;28;20323;-31
2022/11/13 02:04:33;;;;;;;11.93;10.17;;;9.50;99.90;;;;;;5008707;28;20268;-31
2022/11/13 02:07:04;;;;;;;11.33;10.10;;;9.40;99.90;;;;;;4997198;28;20206;-31
2022/11/13 02:09:45;;;;;;;12.30;10.53;;;9.40;99.90;;;;;;5000134;28;20202;-31
2022/11/13 02:12:29;;;;;;;13.80;10.00;;;9.40;99.90;;;;;;5005119;28;20201;-31
2022/11/13 02:14:58;;;;;;;11.87;9.90;;;9.40;99.90;;;;;;5000719;28;20665;-31
2022/11/13 02:17:31;;;;;;;12.53;10.83;;;9.40;99.90;;;;;;4993411;28;20607;-31
2022/11/13 02:20:01;;;;;;;12.47;10.67;;;9.40;99.90;;;;;;5005247;28;20212;-31
2022/11/13 02:22:47;;;;;;;13.37;11.00;;;9.40;99.90;;;;;;5004370;28;20289;-31
2022/11/13 02:25:20;;;;;;;12.27;10.33;;;9.30;99.90;;;;;;5003829;28;20198;-31
2022/11/13 02:27:49;;;;;;;13.30;10.83;;;9.30;99.90;;;;;;5004842;28;20210;-31
2022/11/13 02:30:23;;;;;;;12.77;10.33;;;9.20;99.90;;;;;;5005305;28;20202;-31
2022/11/13 02:32:55;;;;;;;12.37;10.40;;;9.20;99.90;;;;;;5005157;28;20205;-31
2022/11/13 02:35:34;;;;;;;11.53;10.33;;;9.20;99.90;;;;;;5005013;28;20668;-31
2022/11/13 02:38:04;;;;;;;12.30;10.77;;;9.10;99.90;;;;;;5003606;28;20243;-31
2022/11/13 02:40:37;;;;;;;12.50;10.73;;;9.10;99.90;;;;;;5005378;28;20288;-31
2022/11/13 02:43:07;;;;;;;13.10;10.63;;;9.10;99.90;;;;;;5004717;28;20209;-31
2022/11/13 02:45:39;;;;;;;13.13;11.30;;;9.10;99.90;;;;;;5003041;28;20672;-31
2022/11/13 02:48:09;;;;;;;13.73;11.07;;;9.10;99.90;;;;;;5004524;28;20327;-31
2022/11/13 02:50:37;;;;;;;12.03;10.50;;;9.00;99.90;;;;;;5003372;28;20201;-31
2022/11/13 02:53:05;;;;;;;12.77;11.30;;;9.00;99.90;;;;;;5003931;28;20337;-31
2022/11/13 02:55:35;;;;;;;14.37;11.40;;;9.00;99.90;;;;;;5022676;28;20284;-31
2022/11/13 02:58:02;;;;;;;13.13;10.83;;;9.00;99.90;;;;;;5008671;28;20329;-31
2022/11/13 03:00:31;;;;;;;13.10;11.17;;;9.00;99.90;;;;;;5008984;28;20425;-31
2022/11/13 03:02:58;;;;;;;13.77;12.10;;;9.00;99.90;;;;;;5008934;28;20202;-30
2022/11/13 03:05:27;;;;;;;12.93;11.50;;;8.90;99.90;;;;;;5008733;28;20209;-30
2022/11/13 03:07:57;;;;;;;13.67;11.30;;;8.90;99.90;;;;;;5007738;28;20275;-30
2022/11/13 03:10:27;;;;;;;13.53;11.67;;;8.90;99.90;;;;;;5007489;28;20222;-30
2022/11/13 03:12:54;;;;;;;13.17;11.43;;;8.90;99.90;;;;;;5008447;28;20316;-30
2022/11/13 03:15:23;;;;;;;13.60;11.30;;;8.90;99.90;;;;;;5008930;28;20661;-30
2022/11/13 03:17:53;;;;;;;13.57;11.03;;;8.80;99.90;;;;;;5008961;28;20230;-30
2022/11/13 03:20:20;;;;;;;13.73;11.97;;;8.80;99.90;;;;;;5008559;28;20213;-30
2022/11/13 03:22:47;;;;;;;15.33;12.50;;;8.80;99.90;;;;;;5022614;28;20552;-30
2022/11/13 03:25:17;;;;;;;15.93;12.37;;;8.80;99.90;;;;;;5007208;28;20197;-30
2022/11/13 03:27:49;;;;;;;16.23;13.47;;;8.80;99.90;;;;;;5008157;28;20208;-30
2022/11/13 03:30:16;;;;;;;13.80;11.83;;;8.80;99.90;;;;;;5008934;28;20214;-30
2022/11/13 03:32:48;;;;;;;15.03;12.70;;;8.70;99.90;;;;;;5008372;28;20802;-30
2022/11/13 03:35:15;;;;;;;15.43;12.80;;;8.80;99.90;;;;;;5008536;28;20213;-30
2022/11/13 03:37:45;;;;;;;16.00;13.13;;;8.70;99.90;;;;;;5007472;28;20393;-30
2022/11/13 03:40:12;;;;;;;14.17;12.63;;;8.70;99.90;;;;;;4992606;28;20198;-30
2022/11/13 03:42:39;;;;;;;14.47;12.67;;;8.70;99.90;;;;;;4988207;28;20692;-30
2022/11/13 03:45:06;;;;;;;14.73;12.57;;;8.70;99.90;;;;;;4988852;28;20612;-30
2022/11/13 03:47:36;;;;;;;15.17;11.77;;;8.70;99.90;;;;;;4988465;28;20245;-30
2022/11/13 03:50:07;;;;;;;14.53;12.30;;;8.60;99.90;;;;;;4987694;28;20206;-30
2022/11/13 03:52:37;;;;;;;14.07;12.43;;;8.60;99.90;;;;;;4987595;28;20581;-30
2022/11/13 03:55:04;;;;;;;13.13;11.67;;;8.60;99.90;;;;;;4988305;28;20210;-30
2022/11/13 03:57:34;;;;;;;13.73;11.90;;;8.60;99.90;;;;;;4988196;28;20232;-30
2022/11/13 04:00:04;;;;;;;13.80;11.30;;;8.60;99.90;;;;;;4988711;28;20198;-30
2022/11/13 04:02:32;;;;;;;15.40;11.20;;;8.60;99.90;;;;;;4988134;28;20210;-30
2022/11/13 04:04:59;;;;;;;12.83;11.40;;;8.60;99.90;;;;;;4988284;28;20209;-30
2022/11/13 04:07:29;;;;;;;13.77;10.40;;;8.60;99.90;;;;;;4985075;28;20696;-30
2022/11/13 04:10:00;;;;;;;15.50;11.70;;;8.50;99.90;;;;;;4988267;28;20213;-31
2022/11/13 04:12:32;;;;;;;13.73;12.20;;;8.50;99.90;;;;;;4988323;28;20207;-30
2022/11/13 04:15:01;;;;;;;14.10;11.73;;;8.50;99.90;;;;;;4987654;28;20198;-31
2022/11/13 04:17:28;;;;;;;13.90;11.67;;;8.50;99.90;;;;;;4987150;28;20222;-31
2022/11/13 04:19:57;;;;;;;16.03;12.20;;;8.50;99.90;;;;;;4987535;28;20214;-31
2022/11/13 04:22:26;;;;;;;14.87;11.73;;;8.40;99.90;;;;;;4986658;28;20866;-31
2022/11/13 04:24:58;;;;;;;14.33;12.07;;;8.40;99.90;;;;;;4988108;28;20739;-31
2022/11/13 04:27:27;;;;;;;14.43;11.37;;;8.40;99.90;;;;;;4987729;28;20223;-31
2022/11/13 04:29:55;;;;;;;14.83;11.83;;;8.40;99.90;;;;;;4988008;28;20213;-31
2022/11/13 04:32:25;;;;;;;14.53;12.00;;;8.40;99.90;;;;;;4987114;28;20202;-31
2022/11/13 04:34:52;;;;;;;14.43;11.60;;;8.40;99.90;;;;;;5004563;28;20217;-31
2022/11/13 04:37:23;;;;;;;14.20;10.47;;;8.30;99.90;;;;;;5006592;28;20244;-31
2022/11/13 04:39:53;;;;;;;13.40;11.00;;;8.30;99.90;;;;;;5007264;28;20198;-31
2022/11/13 04:45:08;;;;;;;13.43;10.93;;;8.30;99.90;;;;;;5007969;28;20216;-31
2022/11/13 04:47:37;;;;;;;13.87;11.07;;;8.40;99.90;;;;;;5006354;28;20259;-31
2022/11/13 04:50:04;;;;;;;13.53;11.50;;;8.40;99.90;;;;;;5007413;28;20204;-31
2022/11/13 04:52:36;;;;;;;15.77;11.60;;;8.40;99.90;;;;;;5005391;28;20217;-31
2022/11/13 04:55:04;;;;;;;14.70;11.27;;;8.30;99.90;;;;;;5006401;28;20683;-31
2022/11/13 04:57:31;;;;;;;13.47;10.53;;;8.30;99.90;;;;;;5006090;28;20227;-31
2022/11/13 05:00:03;;;;;;;14.13;11.50;;;8.30;99.90;;;;;;5006934;28;20200;-31
2022/11/13 05:02:30;;;;;;;14.17;11.20;;;8.30;99.90;;;;;;5006121;28;20538;-31
2022/11/13 05:05:02;;;;;;;12.97;11.50;;;8.30;99.90;;;;;;5006354;28;20624;-31
2022/11/13 05:07:33;;;;;;;15.37;11.83;;;8.30;99.90;;;;;;5005251;28;20205;-31
2022/11/13 05:10:00;;;;;;;15.43;12.00;;;8.30;99.90;;;;;;5006308;28;20208;-31
2022/11/13 05:12:35;;;;;;;14.73;12.40;;;8.30;99.90;;;;;;5006814;28;20210;-31
2022/11/13 05:15:05;;;;;;;14.93;12.03;;;8.30;99.90;;;;;;5006635;28;20197;-31
2022/11/13 05:17:32;;;;;;;15.73;12.17;;;8.30;99.90;;;;;;5004607;28;20224;-31
2022/11/13 05:20:01;;;;;;;17.67;12.60;;;8.30;99.90;;;;;;5005986;28;20209;-31
2022/11/13 05:22:28;;;;;;;16.23;12.23;;;8.20;99.90;;;;;;5005204;28;20205;-31
2022/11/13 05:24:55;;;;;;;17.07;12.70;;;8.20;99.90;;;;;;5006717;28;20602;-31
2022/11/13 05:27:22;;;;;;;15.13;12.17;;;8.20;99.90;;;;;;5000970;28;20688;-31
2022/11/13 05:29:52;;;;;;;13.57;11.33;;;8.20;99.90;;;;;;4987751;28;20292;-31
2022/11/13 05:32:21;;;;;;;15.10;12.07;;;8.10;99.90;;;;;;4986737;28;20252;-32
2022/11/13 05:34:51;;;;;;;14.83;11.23;;;8.10;99.90;;;;;;4987228;28;20206;-31
2022/11/13 05:37:18;;;;;;;14.40;12.60;;;8.10;99.90;;;;;;4986083;28;20230;-31
2022/11/13 05:39:45;;;;;;;15.43;12.30;;;8.10;99.90;;;;;;4986761;28;20202;-31
2022/11/13 05:42:19;;;;;;;16.57;13.20;;;8.00;99.90;;;;;;4986652;28;20201;-31
2022/11/13 05:44:46;;;;;;;17.37;12.63;;;8.00;99.90;;;;;;4986833;28;20213;-31
2022/11/13 05:47:14;;;;;;;15.47;12.63;;;8.00;99.90;;;;;;4986404;28;20222;-31
2022/11/13 05:49:41;;;;;;;13.63;11.57;;;8.00;99.90;;;;;;4984730;28;20591;-31
2022/11/13 05:52:08;;;;;;;15.63;11.60;;;8.00;99.90;;;;;;4985635;28;20205;-31
2022/11/13 05:54:39;;;;;;;13.70;11.47;;;7.90;99.90;;;;;;4986364;28;20712;-31
2022/11/13 05:57:06;;;;;;;15.70;12.83;;;7.90;99.90;;;;;;4986308;28;20298;-31
2022/11/13 05:59:33;;;;;;;15.57;12.83;;;7.90;99.90;;;;;;4985048;28;20583;-31
2022/11/13 06:02:01;;;;;;;15.00;12.03;;;7.80;99.90;;;;;;4986076;28;20220;-31
2022/11/13 06:04:30;;;;;;;14.37;12.20;;;7.80;99.90;;;;;;4989945;28;20256;-31
2022/11/13 06:07:00;;;;;;;15.80;12.00;;;7.80;99.90;;;;;;5004570;28;20450;-31
2022/11/13 06:09:27;;;;;;;15.13;12.30;;;7.80;99.90;;;;;;4989852;28;20723;-31
2022/11/13 06:11:56;;;;;;;14.63;12.43;;;7.80;99.90;;;;;;5005286;28;20201;-31
2022/11/13 06:14:23;;;;;;;16.13;11.90;;;7.80;99.90;;;;;;5005412;28;20637;-31
2022/11/13 06:16:50;;;;;;;15.10;12.10;;;7.80;99.90;;;;;;4995309;28;20217;-31
2022/11/13 06:19:20;;;;;;;16.10;12.40;;;7.70;99.90;;;;;;5001655;28;20578;-31
2022/11/13 06:21:51;;;;;;;14.87;11.87;;;7.70;99.90;;;;;;4998933;28;20237;-31
2022/11/13 06:24:19;;;;;;;17.67;12.90;;;7.70;99.90;;;;;;5000870;28;20216;-31
2022/11/13 06:26:48;;;;;;;14.00;12.13;;;7.70;99.90;;;;;;5005981;28;20200;-31
2022/11/13 06:29:15;;;;;;;15.10;13.10;;;7.70;99.90;;;;;;5006288;28;20201;-30
2022/11/13 06:31:45;;;;;;;17.40;12.97;;;7.60;99.90;;;;;;5009774;28;20193;-30
2022/11/13 06:34:15;;;;;;;17.80;13.20;;;7.60;99.90;;;;;;5009939;28;20201;-30
2022/11/13 06:36:42;;;;;;;15.50;12.37;;;7.70;99.90;;;;;;5004770;28;20597;-30
2022/11/13 06:39:12;;;;;;;16.13;12.77;;;7.60;99.90;;;;;;4996192;28;20560;-30
2022/11/13 06:41:43;;;;;;;17.00;12.63;;;7.60;99.90;;;;;;5010696;28;20964;-30
2022/11/13 06:44:13;;;;;;;16.37;12.40;;;7.60;99.90;;;;;;5016521;28;20197;-30
2022/11/13 06:46:40;;;;;;;15.37;11.77;;;7.60;99.90;;;;;;5009046;28;20554;-30
2022/11/13 06:49:07;;;;;;;16.20;12.77;;;7.50;99.90;;;;;;5019774;28;20229;-30
2022/11/13 06:51:34;;;;;;;15.50;11.40;;;7.50;99.90;;;;;;5007357;28;20198;-30
2022/11/13 06:54:06;;;;;;;13.70;11.60;;;7.50;99.90;;;;;;5009096;28;20204;-30
2022/11/13 06:56:35;;;;;;;14.03;11.23;;;7.50;99.90;;;;;;5009198;28;20304;-30
2022/11/13 06:59:07;;;;;;;14.70;11.83;;;7.50;99.90;;;;;;5008473;28;20225;-31
2022/11/13 07:01:34;;;;;;;15.20;11.63;;;7.50;99.90;;;;;;5023234;28;20208;-30
2022/11/13 07:04:05;;;;;;;14.40;11.43;;;7.50;99.90;;;;;;5021038;28;20228;-30
2022/11/13 07:06:32;;;;;;;14.57;11.23;;;7.50;99.90;;;;;;5024921;28;20208;-30
2022/11/13 07:09:07;;;;;;;12.77;10.67;;;7.40;99.90;;;;;;5016705;28;20572;-30
2022/11/13 07:11:34;;;;;;;13.37;11.03;;;7.50;99.90;;;;;;5009252;28;20578;-30
2022/11/13 07:14:01;;;;;;;13.23;10.50;;;7.40;99.90;;;;;;5012552;28;20207;-30
2022/11/13 07:16:28;;;;;;;12.03;10.27;;;7.40;99.90;;;;;;5018674;28;20197;-30
2022/11/13 07:19:20;;;;;;;13.40;10.97;;;7.40;99.90;;;;;;5003275;28;20233;-30
2022/11/13 07:21:47;;;;;;;12.40;10.30;;;7.40;99.90;;;;;;5005806;28;20205;-30
2022/11/13 07:24:17;;;;;;;14.07;10.70;;;7.40;99.90;;;;;;5019482;28;20739;-30
2022/11/13 07:26:48;;;;;;;12.10;9.70;;;7.40;99.90;;;;;;5008140;28;20193;-30
2022/11/13 07:29:16;;;;;;;12.73;9.83;;;7.40;99.90;;;;;;5001036;28;20203;-30
2022/11/13 07:31:45;;;;;;;12.43;9.40;;;7.40;99.90;;;;;;5005166;28;20224;-30
2022/11/13 07:34:13;;;;;;;14.30;10.00;;;7.40;99.90;;;;;;5005278;28;20218;-30
2022/11/13 07:36:40;;;;;;;10.70;9.57;;;7.40;99.90;;;;;;5006612;28;20240;-30
2022/11/13 07:39:07;;;;;;;11.93;9.83;;;7.40;99.90;;;;;;4994282;28;20619;-30
2022/11/13 07:41:37;;;;;;;9.83;8.83;;;7.40;99.90;;;;;;5022522;28;20305;-30
2022/11/13 07:44:08;;;;;;;12.13;9.57;;;7.40;99.90;;;;;;5026903;28;20722;-30
2022/11/13 07:46:41;;;;;;;12.70;9.47;;;7.40;99.90;;;;;;4991111;28;20234;-30
2022/11/13 07:49:08;;;;;;;10.90;9.03;;;7.50;99.90;;;;;;5002342;28;20775;-30
2022/11/13 07:51:37;;;;;;;11.57;9.40;;;7.40;99.90;;;;;;5019762;28;20256;-30
2022/11/13 07:54:07;;;;;;;11.50;9.83;;;7.50;99.90;;;;;;5038289;28;20599;-30
2022/11/13 07:56:39;;;;;;;10.77;8.83;;;7.50;99.90;;;;;;5012135;28;20347;-30
2022/11/13 07:59:08;;;;;;;10.47;9.13;;;7.50;99.90;;;;;;5015965;28;20727;-30
2022/11/13 08:01:37;;;;;;;11.70;9.13;;;7.50;99.90;;;;;;5013163;28;20194;-30
2022/11/13 08:04:06;;;;;;;13.03;10.23;;;7.50;99.90;;;;;;5027896;28;20428;-30
2022/11/13 08:06:38;;;;;;;12.80;9.77;;;7.50;99.90;;;;;;5021488;28;20239;-30
2022/11/13 08:09:07;;;;;;;12.17;9.47;;;7.60;99.90;;;;;;5007827;28;20573;-30
2022/11/13 08:11:35;;;;;;;12.77;9.60;;;7.60;99.90;;;;;;4992932;28;20202;-30
2022/11/13 08:14:12;;;;;;;11.83;9.93;;;7.60;99.90;;;;;;5002279;28;20606;-30
2022/11/13 08:16:39;;;;;;;11.83;9.00;;;7.70;99.90;;;;;;4989585;28;20202;-30
2022/11/13 08:19:06;;;;;;;12.53;10.00;;;7.70;99.90;;;;;;5001200;28;20773;-30
2022/11/13 08:21:38;;;;;;;13.97;10.20;;;7.70;99.90;;;;;;4995199;28;20201;-30
2022/11/13 08:24:07;;;;;;;12.73;10.33;;;7.70;99.90;;;;;;5021710;28;20200;-30
2022/11/13 08:26:37;;;;;;;13.93;10.20;;;7.80;99.90;;;;;;5015965;28;20836;-30
2022/11/13 08:29:06;;;;;;;13.33;9.80;;;7.80;99.90;;;;;;4997183;28;20520;-30
2022/11/13 08:31:33;;;;;;;15.53;10.83;;;7.80;99.90;;;;;;5007046;28;20205;-30
2022/11/13 08:34:01;;;;;;;12.93;10.17;;;7.90;99.90;;;;;;5010191;28;20201;-31
2022/11/13 08:36:35;;;;;;;12.10;9.70;;;7.90;99.90;;;;;;5021806;28;20227;-29
2022/11/13 08:39:03;;;;;;;13.33;10.10;;;7.90;99.90;;;;;;5016960;28;20225;-29
2022/11/13 08:41:30;;;;;;;12.77;10.07;;;8.00;99.90;;;;;;5002641;28;20576;-29
2022/11/13 08:43:57;;;;;;;11.43;8.97;;;8.00;99.90;;;;;;4999381;28;20193;-29
2022/11/13 08:46:24;;;;;;;12.23;10.10;;;8.00;99.90;;;;;;4998104;28;20293;-29
2022/11/13 08:48:54;;;;;;;12.80;10.23;;;8.10;99.90;;;;;;5007807;28;20722;-30
2022/11/13 08:51:26;;;;;;;12.40;9.53;;;8.10;99.90;;;;;;5039785;28;20231;-29
2022/11/13 08:53:53;;;;;;;10.97;9.07;;;8.10;99.90;;;;;;5007980;28;20225;-29
2022/11/13 08:56:20;;;;;;;10.87;9.63;;;8.20;99.90;;;;;;5005928;28;20209;-29
2022/11/13 08:58:51;;;;;;;11.57;9.67;;;8.20;99.90;;;;;;5029870;28;20221;-30
2022/11/13 09:01:21;;;;;;;10.40;9.07;;;8.30;99.90;;;;;;5009764;28;20210;-29
2022/11/13 09:03:51;;;;;;;13.73;9.63;;;8.30;99.90;;;;;;4996275;28;20229;-29
2022/11/13 09:06:25;;;;;;;11.40;9.30;;;8.40;99.90;;;;;;5011630;28;20222;-29
2022/11/13 09:08:52;;;;;;;11.37;9.23;;;8.40;99.90;;;;;;5008003;28;20869;-29
2022/11/13 09:11:19;;;;;;;11.00;9.23;;;8.50;99.90;;;;;;5000309;28;20212;-29
2022/11/13 09:13:49;;;;;;;11.13;9.87;;;8.60;99.90;;;;;;5000212;28;20626;-29
2022/11/13 09:16:26;;;;;;;10.57;9.50;;;8.60;99.90;;;;;;5003601;28;20311;-29
2022/11/13 09:19:00;;;;;;;12.40;10.10;;;8.70;99.90;;;;;;5001943;28;20228;-29
2022/11/13 09:21:27;;;;;;;10.40;9.40;;;8.70;99.90;;;;;;5002344;28;20216;-29
2022/11/13 09:23:54;;;;;;;12.40;9.83;;;8.80;99.90;;;;;;4994817;28;20264;-29
2022/11/13 09:26:23;;;;;;;11.10;9.47;;;8.80;99.90;;;;;;5001389;28;20208;-29
2022/11/13 09:28:50;;;;;;;11.40;9.17;;;8.90;99.90;;;;;;5009575;28;20684;-29
2022/11/13 09:31:18;;;;;;;12.33;10.53;;;9.00;99.90;;;;;;5002640;28;20221;-29
2022/11/13 09:33:45;;;;;;;13.70;9.67;;;9.00;99.90;;;;;;4992081;28;20734;-29
2022/11/13 09:36:14;;;;;;;14.37;9.93;;;9.10;99.90;;;;;;5001356;28;21346;-29
2022/11/13 09:38:43;;;;;;;10.53;8.03;;;9.10;99.90;;;;;;5013293;28;20224;-29
2022/11/13 09:41:16;;;;;;;11.73;8.80;;;9.20;99.90;;;;;;5017249;28;20205;-29
2022/11/13 09:43:52;;;;;;;10.10;8.47;;;9.20;99.90;;;;;;5007851;28;20219;-29
2022/11/13 09:46:41;;;;;;;12.97;9.43;;;9.30;99.90;;;;;;5011794;28;20209;-29
2022/11/13 09:49:10;;;;;;;9.70;8.37;;;9.40;99.90;;;;;;4997111;28;20235;-29
2022/11/13 09:51:38;;;;;;;8.90;7.57;;;9.40;99.90;;;;;;5012223;28;20204;-29
2022/11/13 09:54:14;;;;;;;11.80;9.27;;;9.50;99.90;;;;;;5005274;28;20218;-29
2022/11/13 09:57:08;;;;;;;10.60;8.87;;;9.60;99.90;;;;;;5011552;28;20794;-29
2022/11/13 09:59:53;;;;;;;9.77;8.57;;;9.70;99.90;;;;;;5000259;28;20217;-29
2022/11/13 10:02:47;;;;;;;12.43;10.33;;;9.70;99.90;;;;;;5002515;28;20577;-29
2022/11/13 10:05:29;;;;;;;10.93;8.80;;;9.80;99.90;;;;;;4992860;28;20215;-29
2022/11/13 10:08:26;;;;;;;12.00;8.70;;;9.90;99.90;;;;;;5001715;28;20584;-29
2022/11/13 10:11:12;;;;;;;10.63;8.57;;;10.00;99.90;;;;;;5001632;28;20205;-29
2022/11/13 10:13:44;;;;;;;10.80;8.93;;;10.10;99.90;;;;;;5002512;28;20201;-30
2022/11/13 10:16:17;;;;;;;10.53;8.23;;;10.20;99.90;;;;;;5020250;28;20260;-30
2022/11/13 10:18:47;;;;;;;9.00;8.10;;;10.30;99.90;;;;;;5003785;28;20593;-30
2022/11/13 10:21:18;;;;;;;9.13;7.23;;;10.40;99.90;;;;;;5010750;28;20201;-30
2022/11/13 10:23:53;;;;;;;9.70;7.60;;;10.50;99.90;;;;;;5013508;28;20678;-29
2022/11/13 10:26:23;;;;;;;9.50;7.40;;;10.60;99.90;;;;;;5004821;28;20205;-30
2022/11/13 10:29:00;;;;;;;8.77;7.87;;;10.70;99.90;;;;;;5031942;28;20267;-30
2022/11/13 10:31:39;;;;;;;8.67;7.30;;;10.80;99.90;;;;;;5003083;28;20259;-30
2022/11/13 10:34:12;;;;;;;8.27;7.07;;;10.90;99.90;;;;;;5021979;28;20306;-30
2022/11/13 10:37:03;;;;;;;10.70;7.73;;;11.00;99.90;;;;;;5007127;28;20205;-30
2022/11/13 10:39:30;;;;;;;9.07;7.90;;;11.10;99.90;;;;;;4995197;28;20236;-30
2022/11/13 10:41:57;;;;;;;9.20;7.90;;;11.20;99.90;;;;;;5002965;28;20193;-30
2022/11/13 10:44:36;;;;;;;8.73;7.37;;;11.30;99.90;;;;;;5004504;28;20751;-30
2022/11/13 10:47:16;;;;;;;8.13;6.80;;;11.30;99.90;;;;;;5024721;28;20284;-30
2022/11/13 10:50:21;;;;;;;7.63;6.63;;;11.40;99.90;;;;;;5012321;28;20315;-30
2022/11/13 10:52:56;;;;;;;7.57;6.77;;;11.50;99.90;;;;;;5004066;28;20254;-30
2022/11/13 10:55:35;;;;;;;7.77;6.00;;;11.60;99.90;;;;;;5003041;28;20209;-30
2022/11/13 10:58:17;;;;;;;7.33;6.27;;;11.60;99.90;;;;;;5003501;28;20236;-30
2022/11/13 11:00:48;;;;;;;7.33;6.40;;;11.70;99.90;;;;;;5002666;28;20236;-30
2022/11/13 11:03:21;;;;;;;7.90;6.67;;;11.80;99.90;;;;;;5022136;28;20255;-30
2022/11/13 11:06:06;;;;;;;10.03;6.33;;;11.80;99.90;;;;;;5030457;28;20220;-30
2022/11/13 11:08:34;;;;;;;7.70;6.27;;;11.90;99.90;;;;;;4987170;28;20201;-30
2022/11/13 11:14:26;;;;;;;7.03;5.97;;;12.00;99.90;;;;;;5005148;28;20232;-30
2022/11/13 11:16:55;;;;;;;7.90;7.10;;;12.10;99.90;;;;;;5018919;28;20232;-30
2022/11/13 11:19:29;;;;;;;7.70;6.90;;;12.20;99.90;;;;;;5012627;28;20238;-30
2022/11/13 11:22:18;;;;;;;8.90;7.40;;;12.20;99.90;;;;;;5008366;28;20205;-30
2022/11/13 11:24:55;;;;;;;8.07;6.93;;;12.30;99.90;;;;;;4986871;28;20198;-30
2022/11/13 11:27:32;;;;;;;8.13;6.70;;;12.40;99.90;;;;;;5016275;28;20232;-30
2022/11/13 11:30:20;;;;;;;9.00;6.90;;;12.40;99.90;;;;;;5028047;28;20505;-29
2022/11/13 11:32:59;;;;;;;9.03;7.77;;;12.50;99.90;;;;;;4997692;28;21841;-30
2022/11/13 11:35:43;;;;;;;7.73;6.93;;;12.50;99.90;;;;;;5002923;28;20842;-30
2022/11/13 11:38:23;;;;;;;11.57;9.70;;;12.60;99.90;;;;;;4991430;28;20221;-30
2022/11/13 11:40:57;;;;;;;10.23;8.57;;;12.70;99.90;;;;;;5008027;28;20202;-30
2022/11/13 11:43:48;;;;;;;10.27;8.63;;;12.70;99.90;;;;;;4999987;28;20300;-30
2022/11/13 11:46:20;;;;;;;13.07;9.27;;;12.80;99.90;;;;;;4999842;28;20209;-30
2022/11/13 11:48:49;;;;;;;13.53;9.87;;;12.90;99.90;;;;;;5011775;28;20299;-30
2022/11/13 11:51:30;;;;;;;10.87;9.57;;;13.00;99.90;;;;;;5022630;28;20221;-29
2022/11/13 11:54:22;;;;;;;9.67;8.10;;;13.10;99.90;;;;;;5020697;28;20244;-29
2022/11/13 11:56:56;;;;;;;11.30;8.40;;;13.10;99.90;;;;;;5021748;28;20648;-30
2022/11/13 11:59:32;;;;;;;10.50;8.73;;;13.20;99.90;;;;;;5011818;28;20778;-30
2022/11/13 12:02:29;;;;;;;8.20;7.30;;;13.30;99.90;;;;;;5014912;28;20602;-30
2022/11/13 12:05:23;;;;;;;12.20;8.50;;;13.30;99.90;;;;;;5018870;28;20524;-30
2022/11/13 12:08:18;;;;;;;9.53;7.70;;;13.40;99.90;;;;;;5008435;28;20204;-30
2022/11/13 12:11:01;;;;;;;10.83;8.13;;;13.50;99.90;;;;;;4995752;28;20214;-30
2022/11/13 12:14:03;;;;;;;9.33;7.93;;;13.50;99.90;;;;;;5007581;28;20209;-30
2022/11/13 12:16:34;;;;;;;10.17;8.23;;;13.60;99.90;;;;;;5001716;28;20304;-30
2022/11/13 12:19:10;;;;;;;8.60;7.63;;;13.70;99.90;;;;;;5015488;28;20906;-30
2022/11/13 12:21:56;;;;;;;8.50;7.43;;;13.80;99.90;;;;;;5006955;28;20308;-30
2022/11/13 12:24:28;;;;;;;7.90;7.00;;;13.80;99.90;;;;;;5006571;28;20197;-30
2022/11/13 12:27:03;;;;;;;9.53;8.50;;;13.90;99.90;;;;;;5007140;28;20209;-31
2022/11/13 12:29:49;;;;;;;8.87;7.23;;;14.00;99.90;;;;;;5007332;28;20210;-31
2022/11/13 12:32:45;;;;;;;8.23;7.33;;;14.10;99.90;;;;;;5006252;28;20201;-31
2022/11/13 12:35:19;;;;;;;7.87;6.90;;;14.20;99.90;;;;;;4999646;28;20764;-31
2022/11/13 12:38:00;;;;;;;7.97;7.17;;;14.20;99.90;;;;;;5040643;28;20323;-31
2022/11/13 12:40:35;;;;;;;7.40;6.60;;;14.20;99.90;;;;;;5026927;28;20231;-31
2022/11/13 12:43:40;;;;;;;8.60;6.73;;;14.30;99.90;;;;;;5024350;28;20628;-31
2022/11/13 12:46:12;;;;;;;8.43;6.00;;;14.40;99.90;;;;;;5026582;28;20950;-31
2022/11/13 12:48:46;;;;;;;5.97;5.33;;;14.40;99.90;;;;;;5023741;28;20282;-31
2022/11/13 12:51:16;;;;;;;7.70;6.70;;;14.50;99.90;;;;;;5005014;28;20316;-31
2022/11/13 12:53:50;;;;;;;7.20;6.10;;;14.60;99.90;;;;;;5005715;28;20206;-31
2022/11/13 12:56:23;;;;;;;5.63;5.03;;;14.60;99.90;;;;;;5007260;28;20217;-31
2022/11/13 12:58:57;;;;;;;7.73;4.67;;;14.70;99.90;;;;;;5006315;28;20225;-31
2022/11/13 13:02:08;;;;;;;7.03;5.33;;;14.70;99.90;;;;;;5005653;28;20206;-30
2022/11/13 13:05:01;;;;;;;5.60;4.80;;;14.70;99.90;;;;;;4992892;28;20237;-30
2022/11/13 13:07:37;;;;;;;6.03;5.07;;;14.70;99.90;;;;;;5017584;28;20235;-30
2022/11/13 13:10:21;;;;;;;5.23;4.60;;;14.80;99.90;;;;;;5026009;28;20557;-30
2022/11/13 13:13:09;;;;;;;4.90;4.43;;;14.80;99.90;;;;;;5015559;28;20235;-30